Caribbean Galaxy — 3EZV4 — position and weather

sailwx.info

Track history (hours):
 
Tides and Currents Weather Stations Pressure Air Temp Water Temp Dewpoint Dewpoint Depression Visibility Wind Speed Wind Dir Waves Ship Positions

Caribbean Galaxy

Last reported at 2017-Dec-02 23:38 UTC. Time now 2017-Dec-12 23:32 UTC.
Position N 37°48' E 119°58'.
Warning: this ship's position is 9 days out of date.

Length 245 m; draft 8 m.

Type: Ship (hazmat cat A). MMSI: 357449000.

Date/timePositionNaut miles runAvg speedWind from/ knotsBaromVisibWave heightAir tempDewpointWater temp
2017-Dec-02 23:38N 37°48' E 119°58'0 0.2
2017-Dec-02 23:20N 37°48' E 119°58'0 0.2
2017-Dec-02 22:56N 37°48' E 119°58'0 0.1
2017-Dec-02 22:26N 37°48' E 119°58'0 0.0
2017-Dec-02 21:59N 37°48' E 119°58'0 0.1
2017-Dec-02 21:29N 37°48' E 119°58'0 0.1
2017-Dec-02 20:59N 37°48' E 119°58'0 0.1
2017-Dec-02 20:29N 37°48' E 119°58'0 0.0
2017-Dec-02 19:56N 37°48' E 119°58'0 0.0
2017-Dec-02 19:26N 37°48' E 119°58'0 0.1
2017-Dec-02 18:59N 37°48' E 119°58'0 0.0
2017-Dec-02 18:29N 37°48' E 119°58'0 0.0
2017-Dec-02 17:59N 37°48' E 119°58'0 0.0
2017-Dec-02 17:29N 37°48' E 119°58'0 0.0
2017-Dec-02 16:59N 37°48' E 119°58'0 0.1
2017-Dec-02 16:26N 37°48' E 119°58'0 0.1
2017-Dec-02 14:44N 37°48' E 119°58'0 0.0
2017-Dec-02 10:26N 37°48' E 119°58'0 0.0
2017-Dec-02 06:50N 37°48' E 119°58'0 0.0
2017-Dec-01 16:32N 37°48' E 119°58'0 0.1
2017-Dec-01 16:02N 37°48' E 119°58'0 0.0
2017-Dec-01 15:38N 37°48' E 119°58'0 0.0
2017-Dec-01 15:23N 37°48' E 119°58'0 0.0
2017-Nov-30 10:01N 37°48' E 119°58'0 0.5
2017-Nov-30 09:57N 37°48' E 119°58'6 5.0
2017-Nov-30 08:45N 37°46' E 120°05'3 9.2
2017-Nov-30 08:24N 37°44' E 120°08'5 9.1
2017-Nov-30 07:54N 37°40' E 120°12'3 8.8
2017-Nov-30 07:30N 37°38' E 120°16'2 3.9
2017-Nov-30 07:00N 37°39' E 120°18'  
2017-Nov-27 09:07N 37°39' E 120°18'0 1.9
2017-Nov-27 09:00N 37°39' E 120°18'3 5.2
2017-Nov-27 08:29N 37°38' E 120°15'6 8.1
2017-Nov-27 07:43N 37°43' E 120°10'  
Track history (hours):
 
Tides and Currents Weather Stations Pressure Air Temp Water Temp Dewpoint Dewpoint Depression Visibility Wind Speed Wind Dir Waves Ship Positions

Caribbean Galaxy

Last reported at 2017-Dec-02 23:38 UTC. Time now 2017-Dec-12 23:32 UTC.
Position N 37°48' E 119°58'.
Warning: this ship's position is 9 days out of date.

Length 245 m; draft 8 m.

Type: Ship (hazmat cat A). MMSI: 357449000.

Date/timePositionNaut miles runAvg speedWind from/ knotsBaromVisibWave heightAir tempDewpointWater temp
2017-Dec-02 23:38N 37°48' E 119°58'0 0.2
2017-Dec-02 23:20N 37°48' E 119°58'0 0.2
2017-Dec-02 22:56N 37°48' E 119°58'0 0.1
2017-Dec-02 22:26N 37°48' E 119°58'0 0.0
2017-Dec-02 21:59N 37°48' E 119°58'0 0.1
2017-Dec-02 21:29N 37°48' E 119°58'0 0.1
2017-Dec-02 20:59N 37°48' E 119°58'0 0.1
2017-Dec-02 20:29N 37°48' E 119°58'0 0.0
2017-Dec-02 19:56N 37°48' E 119°58'0 0.0
2017-Dec-02 19:26N 37°48' E 119°58'0 0.1
2017-Dec-02 18:59N 37°48' E 119°58'0 0.0
2017-Dec-02 18:29N 37°48' E 119°58'0 0.0
2017-Dec-02 17:59N 37°48' E 119°58'0 0.0
2017-Dec-02 17:29N 37°48' E 119°58'0 0.0
2017-Dec-02 16:59N 37°48' E 119°58'0 0.1
2017-Dec-02 16:26N 37°48' E 119°58'0 0.1
2017-Dec-02 14:44N 37°48' E 119°58'0 0.0
2017-Dec-02 10:26N 37°48' E 119°58'0 0.0
2017-Dec-02 06:50N 37°48' E 119°58'0 0.0
2017-Dec-01 16:32N 37°48' E 119°58'0 0.1
2017-Dec-01 16:02N 37°48' E 119°58'0 0.0
2017-Dec-01 15:38N 37°48' E 119°58'0 0.0
2017-Dec-01 15:23N 37°48' E 119°58'0 0.0
2017-Nov-30 10:01N 37°48' E 119°58'0 0.5
2017-Nov-30 09:57N 37°48' E 119°58'6 5.0
2017-Nov-30 08:45N 37°46' E 120°05'3 9.2
2017-Nov-30 08:24N 37°44' E 120°08'5 9.1
2017-Nov-30 07:54N 37°40' E 120°12'3 8.8
2017-Nov-30 07:30N 37°38' E 120°16'2 3.9
2017-Nov-30 07:00N 37°39' E 120°18'  
2017-Nov-27 09:07N 37°39' E 120°18'0 1.9
2017-Nov-27 09:00N 37°39' E 120°18'3 5.2
2017-Nov-27 08:29N 37°38' E 120°15'6 8.1
2017-Nov-27 07:43N 37°43' E 120°10'  

Dump ship's entire track history